Time;durP1;ratioP1;P1;durP2;ratioP2;P2;SDS_P1;SDS_P2;PMS_P1;PMS_P2;Temp;Humidity;BMP_temperature;BMP_pressure;BME280_temperature;BME280_humidity;BME280_pressure;Samples;Min_cycle;Max_cycle;Signal;HPM_P1;HPM_P2
2022/12/30 00:00:55;;;;;;;9.32;2.47;;;;;;;;;;5089055;28;20135;-57
2022/12/30 00:03:21;;;;;;;6.88;1.90;;;;;;;;;;5092365;28;20210;-59
2022/12/30 00:05:46;;;;;;;10.27;2.30;;;;;;;;;;5100058;28;20035;-59
2022/12/30 00:10:56;;;;;;;8.30;2.08;;;;;;;;;;5091974;28;20093;-60
2022/12/30 00:33:08;;;;;;;10.98;2.10;;;;;;;;;;5098132;28;20093;-60
2022/12/30 00:35:39;;;;;;;13.05;2.83;;;;;;;;;;5095289;28;20020;-60
2022/12/30 00:38:04;;;;;;;10.05;2.00;;;;;;;;;;5092514;28;20047;-59
2022/12/30 00:40:30;;;;;;;7.47;1.63;;;;;;;;;;5093238;28;20096;-60
2022/12/30 00:43:10;;;;;;;6.20;1.90;;;;;;;;;;5102260;28;20531;-58
2022/12/30 00:45:40;;;;;;;8.27;2.42;;;;;;;;;;5111664;28;20032;-61
2022/12/30 00:56:17;;;;;;;6.38;1.67;;;;;;;;;;5096407;28;20513;-58
2022/12/30 00:58:43;;;;;;;7.03;1.83;;;;;;;;;;5094538;28;20094;-61
2022/12/30 01:01:08;;;;;;;9.13;1.77;;;;;;;;;;5102681;28;20067;-60
2022/12/30 01:03:33;;;;;;;9.90;2.03;;;;;;;;;;5077246;28;20036;-60
2022/12/30 01:06:05;;;;;;;10.80;2.03;;;;;;;;;;5090440;28;20030;-59
2022/12/30 01:08:31;;;;;;;10.77;2.38;;;;;;;;;;5110884;28;20032;-59
2022/12/30 01:10:57;;;;;;;10.27;2.58;;;;;;;;;;5091839;28;20222;-58
2022/12/30 01:13:22;;;;;;;7.80;1.80;;;;;;;;;;5109778;28;20533;-60
2022/12/30 01:15:47;;;;;;;18.77;2.47;;;;;;;;;;5081690;28;20104;-59
2022/12/30 01:18:13;;;;;;;8.65;2.08;;;;;;;;;;5107704;28;20081;-58
2022/12/30 01:20:38;;;;;;;12.80;1.95;;;;;;;;;;5080104;28;20408;-60
2022/12/30 01:23:03;;;;;;;13.80;1.98;;;;;;;;;;5092931;28;20477;-57
2022/12/30 01:25:29;;;;;;;9.90;1.90;;;;;;;;;;5104052;28;20063;-57
2022/12/30 01:27:54;;;;;;;8.38;2.05;;;;;;;;;;5113600;28;20024;-58
2022/12/30 01:30:20;;;;;;;12.35;2.70;;;;;;;;;;5096131;28;20110;-58
2022/12/30 01:32:45;;;;;;;11.68;2.05;;;;;;;;;;5108025;28;20384;-58
2022/12/30 01:35:11;;;;;;;10.05;2.10;;;;;;;;;;5095562;28;20078;-58
2022/12/30 01:37:37;;;;;;;9.30;2.53;;;;;;;;;;5096485;28;20041;-60
2022/12/30 01:40:03;;;;;;;9.32;2.13;;;;;;;;;;5106127;28;20111;-58
2022/12/30 01:42:30;;;;;;;17.15;2.42;;;;;;;;;;5094593;28;20457;-57
2022/12/30 01:45:18;;;;;;;7.07;2.17;;;;;;;;;;5103339;28;20084;-59
2022/12/30 01:48:07;;;;;;;5.57;1.58;;;;;;;;;;5102952;28;20035;-57
2022/12/30 01:50:47;;;;;;;7.75;2.17;;;;;;;;;;5077331;28;20048;-58
2022/12/30 01:53:25;;;;;;;16.63;2.17;;;;;;;;;;5112814;28;20031;-55
2022/12/30 01:56:02;;;;;;;8.35;2.10;;;;;;;;;;5104724;28;20027;-58
2022/12/30 01:58:43;;;;;;;7.18;2.03;;;;;;;;;;5109575;28;20506;-57
2022/12/30 02:01:09;;;;;;;15.18;1.83;;;;;;;;;;5104631;28;20039;-58
2022/12/30 02:03:39;;;;;;;9.75;1.75;;;;;;;;;;5094499;28;20032;-59
2022/12/30 02:06:05;;;;;;;12.55;2.17;;;;;;;;;;5105449;28;20031;-58
2022/12/30 02:08:33;;;;;;;10.88;2.25;;;;;;;;;;5094612;28;20070;-57
2022/12/30 02:10:58;;;;;;;11.38;2.10;;;;;;;;;;5101721;28;20057;-58
2022/12/30 02:13:24;;;;;;;5.80;1.63;;;;;;;;;;5102553;28;20115;-57
2022/12/30 02:16:11;;;;;;;10.10;2.10;;;;;;;;;;5092851;28;20031;-59
2022/12/30 02:19:12;;;;;;;9.95;2.10;;;;;;;;;;5092544;28;20032;-57
2022/12/30 02:21:56;;;;;;;10.23;1.98;;;;;;;;;;5101561;28;20034;-58
2022/12/30 02:24:39;;;;;;;10.02;1.95;;;;;;;;;;5101630;28;20035;-58
2022/12/30 02:27:16;;;;;;;9.68;1.85;;;;;;;;;;5095552;28;20044;-58
2022/12/30 02:29:56;;;;;;;10.40;1.88;;;;;;;;;;5095762;28;20035;-60
2022/12/30 02:32:33;;;;;;;12.52;1.85;;;;;;;;;;5095332;28;20549;-58
2022/12/30 02:35:06;;;;;;;7.55;1.90;;;;;;;;;;5073803;28;20043;-57
2022/12/30 02:37:59;;;;;;;8.63;1.98;;;;;;;;;;5096526;28;20468;-58
2022/12/30 02:44:36;;;;;;;6.47;1.65;;;;;;;;;;5100305;28;20531;-59
2022/12/30 02:46:09;;;;;;;11.98;2.13;;;;;;;;;;5110964;28;20038;-59
2022/12/30 02:48:39;;;;;;;8.57;2.38;;;;;;;;;;5092781;28;20043;-58
2022/12/30 02:53:50;;;;;;;10.27;2.47;;;;;;;;;;5100070;28;20039;-58
2022/12/30 02:56:15;;;;;;;9.60;1.85;;;;;;;;;;5087928;28;20035;-58
2022/12/30 02:58:48;;;;;;;8.85;1.80;;;;;;;;;;5106577;28;20044;-54
2022/12/30 03:04:25;;;;;;;8.43;2.28;;;;;;;;;;5099304;28;20047;-57
2022/12/30 03:07:14;;;;;;;10.82;1.95;;;;;;;;;;5108955;28;20027;-57
2022/12/30 03:13:11;;;;;;;8.70;1.80;;;;;;;;;;5095058;28;20043;-58
2022/12/30 03:15:52;;;;;;;9.80;1.70;;;;;;;;;;5088648;28;20039;-58
2022/12/30 03:18:18;;;;;;;7.23;1.93;;;;;;;;;;5105059;28;20024;-56
2022/12/30 03:20:45;;;;;;;10.75;2.20;;;;;;;;;;5104888;28;20019;-59
2022/12/30 03:28:47;;;;;;;8.27;1.70;;;;;;;;;;5099684;28;20435;-59
2022/12/30 03:31:15;;;;;;;6.57;1.90;;;;;;;;;;5112363;28;20061;-57
2022/12/30 03:33:41;;;;;;;14.10;2.60;;;;;;;;;;5086296;28;20035;-56
2022/12/30 03:36:38;;;;;;;5.07;1.40;;;;;;;;;;5107418;28;20051;-58
2022/12/30 03:39:16;;;;;;;10.68;1.67;;;;;;;;;;5092294;28;20032;-57
2022/12/30 03:41:45;;;;;;;8.80;2.38;;;;;;;;;;5092037;28;20084;-60
2022/12/30 03:44:11;;;;;;;9.52;2.05;;;;;;;;;;5076127;28;20032;-59
2022/12/30 03:46:40;;;;;;;9.43;1.80;;;;;;;;;;5085828;28;20066;-58
2022/12/30 03:49:05;;;;;;;14.02;2.13;;;;;;;;;;5099694;28;20621;-55
2022/12/30 03:51:31;;;;;;;10.10;2.00;;;;;;;;;;5077369;28;20039;-55
2022/12/30 03:53:56;;;;;;;7.68;1.50;;;;;;;;;;5095614;28;20035;-56
2022/12/30 03:56:22;;;;;;;10.30;2.03;;;;;;;;;;5094044;28;20028;-56
2022/12/30 03:58:47;;;;;;;7.82;1.80;;;;;;;;;;5101458;28;20047;-60
2022/12/30 04:01:12;;;;;;;12.73;2.10;;;;;;;;;;5106995;28;20031;-58
2022/12/30 04:03:38;;;;;;;10.82;2.13;;;;;;;;;;5095870;28;20024;-58
2022/12/30 04:06:03;;;;;;;8.65;1.88;;;;;;;;;;5106217;28;20030;-59
2022/12/30 04:08:29;;;;;;;11.43;2.25;;;;;;;;;;5110206;28;20541;-58
2022/12/30 04:10:54;;;;;;;11.70;2.13;;;;;;;;;;5090774;28;20077;-58
2022/12/30 04:13:20;;;;;;;8.75;1.95;;;;;;;;;;5099244;28;20055;-58
2022/12/30 04:15:50;;;;;;;11.13;2.00;;;;;;;;;;5091193;28;20495;-56
2022/12/30 04:18:16;;;;;;;8.85;2.03;;;;;;;;;;5105279;28;20032;-57
2022/12/30 04:20:41;;;;;;;11.95;2.60;;;;;;;;;;5109468;28;20035;-57
2022/12/30 04:23:07;;;;;;;12.73;1.90;;;;;;;;;;5091889;28;20032;-58
2022/12/30 04:25:32;;;;;;;8.80;1.90;;;;;;;;;;5105566;28;20426;-57
2022/12/30 04:27:58;;;;;;;12.95;2.25;;;;;;;;;;5108385;28;20100;-57
2022/12/30 04:30:23;;;;;;;9.98;1.92;;;;;;;;;;5096266;28;20023;-58
2022/12/30 04:32:48;;;;;;;14.60;2.55;;;;;;;;;;5092542;28;20035;-59
2022/12/30 04:35:14;;;;;;;10.40;2.03;;;;;;;;;;5098762;28;20035;-57
2022/12/30 04:37:39;;;;;;;10.15;1.90;;;;;;;;;;5092183;28;20070;-57
2022/12/30 04:40:05;;;;;;;10.80;2.08;;;;;;;;;;5096560;28;20428;-57
2022/12/30 04:42:31;;;;;;;10.25;1.98;;;;;;;;;;5099045;28;20491;-58
2022/12/30 04:44:56;;;;;;;11.23;2.13;;;;;;;;;;5100072;28;20032;-57
2022/12/30 04:47:21;;;;;;;8.38;1.90;;;;;;;;;;5107437;28;20085;-57
2022/12/30 04:49:47;;;;;;;5.28;1.77;;;;;;;;;;5092811;28;20028;-57
2022/12/30 04:52:12;;;;;;;7.18;1.85;;;;;;;;;;5087358;28;20036;-58
2022/12/30 04:54:37;;;;;;;11.05;1.83;;;;;;;;;;5106538;28;20468;-56
2022/12/30 04:57:03;;;;;;;13.07;2.72;;;;;;;;;;5089187;28;20036;-58
2022/12/30 04:59:28;;;;;;;12.23;2.72;;;;;;;;;;5112055;28;20521;-58
2022/12/30 05:01:54;;;;;;;12.20;1.98;;;;;;;;;;5094783;28;20108;-59
2022/12/30 05:04:19;;;;;;;8.65;2.38;;;;;;;;;;5095883;28;20028;-56
2022/12/30 05:06:45;;;;;;;11.88;2.13;;;;;;;;;;5096279;28;20028;-58
2022/12/30 05:09:10;;;;;;;10.68;1.90;;;;;;;;;;5107575;28;20360;-57
2022/12/30 05:11:35;;;;;;;11.55;1.95;;;;;;;;;;5109688;28;20051;-57
2022/12/30 05:14:01;;;;;;;14.73;2.40;;;;;;;;;;5107042;28;20107;-57
2022/12/30 05:16:26;;;;;;;9.73;2.00;;;;;;;;;;5113169;28;20521;-53
2022/12/30 05:18:51;;;;;;;15.07;2.72;;;;;;;;;;5109036;28;20027;-58
2022/12/30 05:21:17;;;;;;;14.88;2.30;;;;;;;;;;5115470;28;20050;-56
2022/12/30 05:26:40;;;;;;;14.57;3.17;;;;;;;;;;5068359;28;20047;-58
2022/12/30 05:29:05;;;;;;;11.18;2.10;;;;;;;;;;5105234;28;20032;-56
2022/12/30 05:31:31;;;;;;;10.05;2.10;;;;;;;;;;5078556;28;20036;-56
2022/12/30 05:33:56;;;;;;;8.77;2.65;;;;;;;;;;5095186;28;20024;-58
2022/12/30 05:36:21;;;;;;;10.02;2.05;;;;;;;;;;5078122;28;20039;-57
2022/12/30 05:38:47;;;;;;;13.18;2.33;;;;;;;;;;5098215;28;20467;-54
2022/12/30 05:41:12;;;;;;;16.00;2.33;;;;;;;;;;5112867;28;20016;-56
2022/12/30 05:43:38;;;;;;;8.55;2.10;;;;;;;;;;5096152;28;20043;-58
2022/12/30 05:46:03;;;;;;;10.63;2.10;;;;;;;;;;5084821;28;20032;-57
2022/12/30 05:48:29;;;;;;;9.48;2.35;;;;;;;;;;5105630;28;20495;-58
2022/12/30 05:50:54;;;;;;;11.32;2.15;;;;;;;;;;5114642;28;20023;-58
2022/12/30 05:53:20;;;;;;;13.10;2.45;;;;;;;;;;5112653;28;20031;-58
2022/12/30 05:55:45;;;;;;;11.05;2.38;;;;;;;;;;5113439;28;20028;-57
2022/12/30 05:58:11;;;;;;;8.30;2.10;;;;;;;;;;5085927;28;20373;-54
2022/12/30 06:00:37;;;;;;;11.48;2.83;;;;;;;;;;5094499;28;20039;-58
2022/12/30 06:03:03;;;;;;;12.23;2.58;;;;;;;;;;5094597;28;20114;-58
2022/12/30 06:05:28;;;;;;;9.50;2.13;;;;;;;;;;5110549;28;20088;-58
2022/12/30 06:07:53;;;;;;;10.32;2.10;;;;;;;;;;5101728;28;20074;-59
2022/12/30 06:10:19;;;;;;;13.07;2.22;;;;;;;;;;5101290;28;20081;-57
2022/12/30 06:12:44;;;;;;;14.23;3.17;;;;;;;;;;5110542;28;20082;-57
2022/12/30 06:15:10;;;;;;;9.18;2.05;;;;;;;;;;5096889;28;20032;-56
2022/12/30 06:17:35;;;;;;;9.68;2.42;;;;;;;;;;5095876;28;20107;-56
2022/12/30 06:20:01;;;;;;;8.18;2.05;;;;;;;;;;5112966;28;20061;-56
2022/12/30 06:22:26;;;;;;;11.50;2.25;;;;;;;;;;5112900;28;20043;-56
2022/12/30 06:24:52;;;;;;;10.55;2.80;;;;;;;;;;5107766;28;20081;-54
2022/12/30 06:27:17;;;;;;;10.48;2.35;;;;;;;;;;5092831;28;20028;-58
2022/12/30 06:29:43;;;;;;;10.68;2.45;;;;;;;;;;5095344;28;20422;-58
2022/12/30 06:32:08;;;;;;;8.38;2.10;;;;;;;;;;5075757;28;20616;-58
2022/12/30 06:34:33;;;;;;;13.20;2.60;;;;;;;;;;5095814;28;20024;-59
2022/12/30 06:36:59;;;;;;;6.05;2.05;;;;;;;;;;5095346;28;20032;-59
2022/12/30 06:39:24;;;;;;;11.82;2.97;;;;;;;;;;5101894;28;20464;-58
2022/12/30 06:41:50;;;;;;;8.52;2.45;;;;;;;;;;5098166;28;20059;-59
2022/12/30 06:44:15;;;;;;;9.23;2.20;;;;;;;;;;5105753;28;20250;-59
2022/12/30 06:46:41;;;;;;;10.45;2.10;;;;;;;;;;5109569;28;20028;-59
2022/12/30 06:49:06;;;;;;;8.45;2.20;;;;;;;;;;5097107;28;20056;-58
2022/12/30 06:51:32;;;;;;;11.73;2.30;;;;;;;;;;5114054;28;20077;-59
2022/12/30 06:53:57;;;;;;;10.70;2.20;;;;;;;;;;5109261;28;20038;-58
2022/12/30 06:56:22;;;;;;;6.80;1.75;;;;;;;;;;5098009;28;20036;-58
2022/12/30 06:58:48;;;;;;;9.77;2.22;;;;;;;;;;5111287;28;20048;-58
2022/12/30 07:01:13;;;;;;;9.57;1.80;;;;;;;;;;5092860;28;20028;-58
2022/12/30 07:03:39;;;;;;;17.65;2.75;;;;;;;;;;5093265;28;20526;-58
2022/12/30 07:06:05;;;;;;;9.20;1.98;;;;;;;;;;5096852;28;20533;-56
2022/12/30 07:08:31;;;;;;;9.95;1.95;;;;;;;;;;5113756;28;20032;-59
2022/12/30 07:10:56;;;;;;;11.68;2.05;;;;;;;;;;5091886;28;20032;-58
2022/12/30 07:13:21;;;;;;;8.05;2.03;;;;;;;;;;5091474;28;20031;-59
2022/12/30 07:15:50;;;;;;;9.80;2.35;;;;;;;;;;5111454;28;20066;-56
2022/12/30 07:18:15;;;;;;;6.40;1.90;;;;;;;;;;5112725;28;20028;-57
2022/12/30 07:20:42;;;;;;;10.18;2.55;;;;;;;;;;5112034;28;20076;-59
2022/12/30 07:23:07;;;;;;;9.27;1.70;;;;;;;;;;5112749;28;20036;-58
2022/12/30 07:25:32;;;;;;;9.05;2.03;;;;;;;;;;5098085;28;20047;-59
2022/12/30 07:28:03;;;;;;;11.30;2.00;;;;;;;;;;5092732;28;20056;-60
2022/12/30 07:30:29;;;;;;;5.45;1.60;;;;;;;;;;5108842;28;20042;-58
2022/12/30 07:32:55;;;;;;;13.75;2.33;;;;;;;;;;5113221;28;20036;-62
2022/12/30 07:35:20;;;;;;;6.38;1.80;;;;;;;;;;5079080;28;20028;-61
2022/12/30 07:37:45;;;;;;;6.90;1.90;;;;;;;;;;5112867;28;20459;-61
2022/12/30 07:40:11;;;;;;;6.15;1.67;;;;;;;;;;5095265;28;20452;-61
2022/12/30 07:42:36;;;;;;;6.68;1.98;;;;;;;;;;5092604;28;20114;-61
2022/12/30 07:45:02;;;;;;;5.65;1.58;;;;;;;;;;5105507;28;20113;-61
2022/12/30 07:47:32;;;;;;;6.18;1.77;;;;;;;;;;5092766;28;20058;-58
2022/12/30 07:49:58;;;;;;;9.15;1.80;;;;;;;;;;5106605;28;20483;-61
2022/12/30 07:52:24;;;;;;;9.10;1.58;;;;;;;;;;5091927;28;20043;-56
2022/12/30 07:54:49;;;;;;;6.72;1.50;;;;;;;;;;5112592;28;20384;-55
2022/12/30 07:57:15;;;;;;;6.32;1.50;;;;;;;;;;5089634;28;20050;-55
2022/12/30 07:59:40;;;;;;;6.93;1.85;;;;;;;;;;5094392;28;20024;-57
2022/12/30 08:02:05;;;;;;;8.23;1.65;;;;;;;;;;5100514;28;20118;-58
2022/12/30 08:04:31;;;;;;;5.60;1.58;;;;;;;;;;5110620;28;20035;-58
2022/12/30 08:06:56;;;;;;;7.50;1.70;;;;;;;;;;5110254;28;20407;-53
2022/12/30 08:09:22;;;;;;;7.07;1.80;;;;;;;;;;5098172;28;20027;-59
2022/12/30 08:11:47;;;;;;;8.98;1.60;;;;;;;;;;5098590;28;20028;-56
2022/12/30 08:14:13;;;;;;;5.85;1.70;;;;;;;;;;5091706;28;20106;-54
2022/12/30 08:16:38;;;;;;;6.53;1.63;;;;;;;;;;5110811;28;20476;-56
2022/12/30 08:19:03;;;;;;;7.00;2.15;;;;;;;;;;5091188;28;20031;-62
2022/12/30 08:21:29;;;;;;;6.03;1.70;;;;;;;;;;5092901;28;20027;-58
2022/12/30 08:23:54;;;;;;;3.58;1.40;;;;;;;;;;5108660;28;20433;-59
2022/12/30 08:26:22;;;;;;;8.40;2.13;;;;;;;;;;5111228;28;20039;-59
2022/12/30 08:28:48;;;;;;;5.22;1.60;;;;;;;;;;5092335;28;20472;-59
2022/12/30 08:31:19;;;;;;;4.18;1.52;;;;;;;;;;5111078;28;20028;-59
2022/12/30 08:33:44;;;;;;;;;;;;;;;;;;5110414;28;20039;-59
2022/12/30 08:36:14;;;;;;;6.15;1.88;;;;;;;;;;5093371;28;19908;-57
2022/12/30 08:38:42;;;;;;;5.25;1.50;;;;;;;;;;5108668;28;20487;-58
2022/12/30 08:41:27;;;;;;;6.07;1.60;;;;;;;;;;5111474;28;20032;-60
2022/12/30 08:43:55;;;;;;;6.68;1.55;;;;;;;;;;5110512;28;20035;-59
2022/12/30 08:46:21;;;;;;;7.43;1.98;;;;;;;;;;5104135;28;20085;-59
2022/12/30 08:48:47;;;;;;;5.97;1.45;;;;;;;;;;5073402;28;20232;-55
2022/12/30 08:51:13;;;;;;;4.13;1.45;;;;;;;;;;5097750;28;20132;-57
2022/12/30 08:53:39;;;;;;;6.05;1.80;;;;;;;;;;5112214;28;20379;-58
2022/12/30 08:56:17;;;;;;;5.55;1.70;;;;;;;;;;5110699;28;20115;-60
2022/12/30 08:58:43;;;;;;;5.30;1.52;;;;;;;;;;5090054;28;20135;-57
2022/12/30 09:01:18;;;;;;;5.57;1.52;;;;;;;;;;5083996;28;20054;-56
2022/12/30 09:03:45;;;;;;;5.20;1.45;;;;;;;;;;5078491;28;20032;-61
2022/12/30 09:06:12;;;;;;;2.92;1.25;;;;;;;;;;5081508;28;20032;-58
2022/12/30 09:08:38;;;;;;;6.43;1.77;;;;;;;;;;5091480;28;20036;-58
2022/12/30 09:11:09;;;;;;;3.58;1.60;;;;;;;;;;5089806;28;20490;-59
2022/12/30 09:13:37;;;;;;;4.63;1.20;;;;;;;;;;5084289;28;20036;-60
2022/12/30 09:16:04;;;;;;;5.35;1.48;;;;;;;;;;5088733;28;20036;-60
2022/12/30 09:18:29;;;;;;;3.22;1.65;;;;;;;;;;5090315;28;20066;-56
2022/12/30 09:20:55;;;;;;;6.35;1.38;;;;;;;;;;5074409;28;20060;-58
2022/12/30 09:23:20;;;;;;;5.07;1.45;;;;;;;;;;5070407;28;20442;-56
2022/12/30 09:25:46;;;;;;;4.82;1.48;;;;;;;;;;5082671;28;20032;-58
2022/12/30 09:28:11;;;;;;;4.00;1.67;;;;;;;;;;5073109;28;20024;-58
2022/12/30 09:30:37;;;;;;;5.35;1.40;;;;;;;;;;5081155;28;20388;-57
2022/12/30 09:33:03;;;;;;;5.55;1.40;;;;;;;;;;5088125;28;20148;-59
2022/12/30 09:35:28;;;;;;;7.00;1.60;;;;;;;;;;5090350;28;20110;-59
2022/12/30 09:37:53;;;;;;;2.00;1.05;;;;;;;;;;5089019;28;20385;-59
2022/12/30 09:40:30;;;;;;;3.53;1.40;;;;;;;;;;5085350;28;20480;-58
2022/12/30 09:43:15;;;;;;;3.83;1.40;;;;;;;;;;5079721;28;20496;-56
2022/12/30 09:46:00;;;;;;;4.45;1.30;;;;;;;;;;5080870;28;20025;-58
2022/12/30 09:48:37;;;;;;;4.95;1.83;;;;;;;;;;5086324;28;20062;-58
2022/12/30 09:51:09;;;;;;;2.83;1.20;;;;;;;;;;5084467;28;20040;-57
2022/12/30 09:53:47;;;;;;;6.80;1.40;;;;;;;;;;5088349;28;20035;-59
2022/12/30 09:56:26;;;;;;;5.32;1.70;;;;;;;;;;5081127;28;20036;-57
2022/12/30 09:58:54;;;;;;;7.13;1.80;;;;;;;;;;5102732;28;20047;-58
2022/12/30 10:01:27;;;;;;;7.10;1.60;;;;;;;;;;5098248;28;20043;-60
2022/12/30 10:03:58;;;;;;;5.53;1.50;;;;;;;;;;5094661;28;20035;-59
2022/12/30 10:07:02;;;;;;;10.27;2.05;;;;;;;;;;5075658;28;20419;-56
2022/12/30 10:09:54;;;;;;;3.15;1.50;;;;;;;;;;5005040;28;20619;-53
2022/12/30 10:12:48;;;;;;;4.88;1.70;;;;;;;;;;5087612;28;20346;-58
2022/12/30 10:15:36;;;;;;;7.28;1.85;;;;;;;;;;5095533;28;20065;-59
2022/12/30 10:18:17;;;;;;;7.35;1.90;;;;;;;;;;5070524;28;20046;-58
2022/12/30 10:21:01;;;;;;;4.07;1.58;;;;;;;;;;5112252;28;20051;-57
2022/12/30 10:24:13;;;;;;;3.80;1.40;;;;;;;;;;5111456;28;20067;-56
2022/12/30 10:26:44;;;;;;;7.45;1.83;;;;;;;;;;5105155;28;20113;-59
2022/12/30 10:29:27;;;;;;;2.75;1.20;;;;;;;;;;5094812;28;20477;-60
2022/12/30 10:31:53;;;;;;;6.40;1.50;;;;;;;;;;5109588;28;20046;-57
2022/12/30 10:34:28;;;;;;;4.40;1.33;;;;;;;;;;5102413;28;20039;-58
2022/12/30 10:37:00;;;;;;;4.82;2.25;;;;;;;;;;5094181;28;20028;-57
2022/12/30 10:39:31;;;;;;;7.28;1.90;;;;;;;;;;5108308;28;20479;-60
2022/12/30 10:42:16;;;;;;;6.00;1.88;;;;;;;;;;5111568;28;20031;-59
2022/12/30 10:45:11;;;;;;;2.78;1.20;;;;;;;;;;5084045;28;20031;-59
2022/12/30 10:47:57;;;;;;;4.75;1.63;;;;;;;;;;5113847;28;20035;-58
2022/12/30 10:50:31;;;;;;;3.65;1.40;;;;;;;;;;5106646;28;20041;-58
2022/12/30 10:52:57;;;;;;;4.30;1.40;;;;;;;;;;5106604;28;20035;-57
2022/12/30 10:55:26;;;;;;;4.63;1.20;;;;;;;;;;5111629;28;20073;-58
2022/12/30 10:57:57;;;;;;;5.43;1.50;;;;;;;;;;5114265;28;20086;-55
2022/12/30 11:00:23;;;;;;;4.28;1.20;;;;;;;;;;5090262;28;20043;-58
2022/12/30 11:02:58;;;;;;;4.20;1.30;;;;;;;;;;5097521;28;20024;-59
2022/12/30 11:05:34;;;;;;;3.55;1.10;;;;;;;;;;5084444;28;20109;-55
2022/12/30 11:08:06;;;;;;;4.45;1.25;;;;;;;;;;5096287;28;22421;-57
2022/12/30 11:10:32;;;;;;;5.03;1.45;;;;;;;;;;5088007;28;20551;-59
2022/12/30 11:16:12;;;;;;;4.35;1.27;;;;;;;;;;5104004;28;20442;-60
2022/12/30 11:18:38;;;;;;;2.92;1.33;;;;;;;;;;5107431;28;20034;-58
2022/12/30 11:21:06;;;;;;;2.92;1.20;;;;;;;;;;5102052;28;20027;-58
2022/12/30 11:23:37;;;;;;;6.47;1.55;;;;;;;;;;5110325;28;20590;-58
2022/12/30 11:26:09;;;;;;;6.80;1.52;;;;;;;;;;5092774;28;20038;-56
2022/12/30 11:28:45;;;;;;;5.25;1.30;;;;;;;;;;5110115;28;20268;-55
2022/12/30 11:31:13;;;;;;;4.60;1.48;;;;;;;;;;5107703;28;20046;-58
2022/12/30 11:33:53;;;;;;;5.32;1.20;;;;;;;;;;5099157;28;20032;-57
2022/12/30 11:36:28;;;;;;;6.93;1.70;;;;;;;;;;5112053;28;20110;-58
2022/12/30 11:38:55;;;;;;;5.25;1.15;;;;;;;;;;5111059;28;20092;-57
2022/12/30 11:41:28;;;;;;;5.93;1.77;;;;;;;;;;5111622;28;20033;-55
2022/12/30 11:44:00;;;;;;;7.72;1.27;;;;;;;;;;5098866;28;20477;-54
2022/12/30 11:46:30;;;;;;;5.60;1.60;;;;;;;;;;5099726;28;20465;-60
2022/12/30 11:49:14;;;;;;;4.73;1.40;;;;;;;;;;5099136;28;20032;-58
2022/12/30 11:51:49;;;;;;;3.35;1.55;;;;;;;;;;5108119;28;20276;-58
2022/12/30 11:54:17;;;;;;;3.10;1.48;;;;;;;;;;5095307;28;20038;-60
2022/12/30 11:56:54;;;;;;;6.13;1.63;;;;;;;;;;5096118;28;20034;-56
2022/12/30 11:59:24;;;;;;;4.38;1.67;;;;;;;;;;5109470;28;20145;-56
2022/12/30 12:01:53;;;;;;;5.43;1.70;;;;;;;;;;5086637;28;20468;-57
2022/12/30 12:04:38;;;;;;;5.95;1.42;;;;;;;;;;5091394;28;20093;-58
2022/12/30 12:07:18;;;;;;;8.70;2.05;;;;;;;;;;5104398;28;20042;-58
2022/12/30 12:09:50;;;;;;;3.30;1.50;;;;;;;;;;5107409;28;20036;-59
2022/12/30 12:12:19;;;;;;;7.25;1.70;;;;;;;;;;5092108;28;20024;-60
2022/12/30 12:15:22;;;;;;;6.18;1.70;;;;;;;;;;5101273;28;20088;-57
2022/12/30 12:18:17;;;;;;;2.20;1.25;;;;;;;;;;5111405;28;20071;-59
2022/12/30 12:20:48;;;;;;;4.00;1.38;;;;;;;;;;5057052;28;20127;-58
2022/12/30 12:23:31;;;;;;;3.88;1.77;;;;;;;;;;5092620;28;20077;-56
2022/12/30 12:25:57;;;;;;;5.72;1.90;;;;;;;;;;5075676;28;20111;-57
2022/12/30 12:28:24;;;;;;;7.40;1.60;;;;;;;;;;5111252;28;20528;-59
2022/12/30 12:30:57;;;;;;;3.53;1.50;;;;;;;;;;5111104;28;20039;-57
2022/12/30 12:33:29;;;;;;;3.83;1.50;;;;;;;;;;5093699;28;20452;-58
2022/12/30 12:36:22;;;;;;;2.88;1.58;;;;;;;;;;5093749;28;20036;-59
2022/12/30 12:38:53;;;;;;;3.63;1.58;;;;;;;;;;5112013;28;20023;-56
2022/12/30 12:41:39;;;;;;;5.00;1.70;;;;;;;;;;5109900;28;20383;-59
2022/12/30 12:44:29;;;;;;;3.58;1.40;;;;;;;;;;5106352;28;20035;-58
2022/12/30 12:47:07;;;;;;;4.95;1.65;;;;;;;;;;5091355;28;20039;-59
2022/12/30 12:49:45;;;;;;;3.50;1.60;;;;;;;;;;5073099;28;20028;-58
2022/12/30 12:52:38;;;;;;;5.07;1.73;;;;;;;;;;5095606;28;20050;-56
2022/12/30 12:55:31;;;;;;;6.32;1.52;;;;;;;;;;5106069;28;20484;-56
2022/12/30 12:58:03;;;;;;;4.47;1.50;;;;;;;;;;5055050;28;20136;-54
2022/12/30 13:00:52;;;;;;;3.08;1.08;;;;;;;;;;5090692;28;20025;-56
2022/12/30 13:03:49;;;;;;;5.78;1.40;;;;;;;;;;5107550;28;20059;-59
2022/12/30 13:06:38;;;;;;;3.15;1.30;;;;;;;;;;5109007;28;20130;-59
2022/12/30 13:09:24;;;;;;;4.50;1.50;;;;;;;;;;5094252;28;20038;-59
2022/12/30 13:12:09;;;;;;;2.65;1.40;;;;;;;;;;5111489;28;20038;-56
2022/12/30 13:14:46;;;;;;;6.22;2.08;;;;;;;;;;5103642;28;20104;-55
2022/12/30 13:17:33;;;;;;;3.45;1.42;;;;;;;;;;5092412;28;20046;-58
2022/12/30 13:20:08;;;;;;;7.88;2.05;;;;;;;;;;5112010;28;20123;-59
2022/12/30 13:22:36;;;;;;;3.03;1.33;;;;;;;;;;5115098;28;20028;-59
2022/12/30 13:25:11;;;;;;;3.67;1.40;;;;;;;;;;5115943;28;20078;-57
2022/12/30 13:27:37;;;;;;;2.63;1.45;;;;;;;;;;5113933;28;20052;-58
2022/12/30 13:30:05;;;;;;;4.78;1.33;;;;;;;;;;5115106;28;20106;-57
2022/12/30 13:32:35;;;;;;;5.07;1.67;;;;;;;;;;5115399;28;20034;-57
2022/12/30 13:35:38;;;;;;;4.20;1.38;;;;;;;;;;5097647;28;20039;-58
2022/12/30 13:38:12;;;;;;;2.58;1.05;;;;;;;;;;5109818;28;20108;-58
2022/12/30 13:41:06;;;;;;;5.88;1.40;;;;;;;;;;5113529;28;20088;-57
2022/12/30 13:43:37;;;;;;;3.38;1.17;;;;;;;;;;5052173;28;20050;-59
2022/12/30 13:46:03;;;;;;;2.03;1.20;;;;;;;;;;5108115;28;20035;-59
2022/12/30 13:48:33;;;;;;;4.10;1.20;;;;;;;;;;5113841;28;20028;-60
2022/12/30 13:51:15;;;;;;;6.75;1.50;;;;;;;;;;5114498;28;20401;-59
2022/12/30 13:53:46;;;;;;;4.70;1.60;;;;;;;;;;5114425;28;20522;-59
2022/12/30 13:56:21;;;;;;;6.43;1.95;;;;;;;;;;5114925;28;20032;-60
2022/12/30 13:58:53;;;;;;;6.35;1.83;;;;;;;;;;5114000;28;20047;-61
2022/12/30 14:01:18;;;;;;;2.15;1.20;;;;;;;;;;5113171;28;20031;-61
2022/12/30 14:03:48;;;;;;;4.80;1.20;;;;;;;;;;5095889;28;20479;-61
2022/12/30 14:06:28;;;;;;;4.00;1.52;;;;;;;;;;5113195;28;20089;-62
2022/12/30 14:09:12;;;;;;;5.38;1.60;;;;;;;;;;5094366;28;20395;-60
2022/12/30 14:11:37;;;;;;;4.85;1.65;;;;;;;;;;5112658;28;20039;-60
2022/12/30 14:14:23;;;;;;;6.50;1.85;;;;;;;;;;5114773;28;20376;-61
2022/12/30 14:16:53;;;;;;;3.63;1.45;;;;;;;;;;5111963;28;20043;-61
2022/12/30 14:19:30;;;;;;;4.32;1.60;;;;;;;;;;5103041;28;20476;-60
2022/12/30 14:21:55;;;;;;;3.15;1.10;;;;;;;;;;5095751;28;20487;-60
2022/12/30 14:24:30;;;;;;;3.63;1.80;;;;;;;;;;5099785;28;20111;-61
2022/12/30 14:26:56;;;;;;;2.05;1.33;;;;;;;;;;5114642;28;20089;-60
2022/12/30 14:29:29;;;;;;;6.00;1.70;;;;;;;;;;5112359;28;20199;-61
2022/12/30 14:32:02;;;;;;;4.25;1.38;;;;;;;;;;5112682;28;20468;-60
2022/12/30 14:34:35;;;;;;;8.18;1.85;;;;;;;;;;5112409;28;20031;-61
2022/12/30 14:37:18;;;;;;;4.82;1.65;;;;;;;;;;5114417;28;20027;-61
2022/12/30 14:39:44;;;;;;;6.80;1.80;;;;;;;;;;5094621;28;20079;-59
2022/12/30 14:42:30;;;;;;;3.72;1.50;;;;;;;;;;5114473;28;20475;-60
2022/12/30 14:44:59;;;;;;;5.25;1.63;;;;;;;;;;5112129;28;20084;-62
2022/12/30 14:47:46;;;;;;;3.03;1.40;;;;;;;;;;5095148;28;20032;-60
2022/12/30 14:50:17;;;;;;;4.50;1.90;;;;;;;;;;5101098;28;20032;-61
2022/12/30 14:52:53;;;;;;;6.53;1.90;;;;;;;;;;5107068;28;20028;-61
2022/12/30 14:55:25;;;;;;;4.85;1.60;;;;;;;;;;5105268;28;20036;-60
2022/12/30 14:58:04;;;;;;;5.13;1.45;;;;;;;;;;5102451;28;20040;-60
2022/12/30 15:00:34;;;;;;;4.70;1.30;;;;;;;;;;5106823;28;20024;-60
2022/12/30 15:03:00;;;;;;;4.70;1.40;;;;;;;;;;5093483;28;20027;-61
2022/12/30 15:05:34;;;;;;;5.40;1.38;;;;;;;;;;5093182;28;20032;-61
2022/12/30 15:08:03;;;;;;;3.35;1.20;;;;;;;;;;5098653;28;20039;-61
2022/12/30 15:11:05;;;;;;;5.78;1.40;;;;;;;;;;5079864;28;20062;-61
2022/12/30 15:13:39;;;;;;;;;;;;;;;;;;5094033;28;20655;-61
2022/12/30 15:16:07;;;;;;;3.80;1.48;;;;;;;;;;5104375;28;19919;-61
2022/12/30 15:18:41;;;;;;;5.05;1.48;;;;;;;;;;5094975;28;20525;-61
2022/12/30 15:21:19;;;;;;;1.60;1.17;;;;;;;;;;5103637;28;20052;-61
2022/12/30 15:23:59;;;;;;;5.25;1.30;;;;;;;;;;5092534;28;20027;-61
2022/12/30 15:26:31;;;;;;;3.15;1.40;;;;;;;;;;5108898;28;20527;-60
2022/12/30 15:28:57;;;;;;;2.53;1.40;;;;;;;;;;5104564;28;20055;-60
2022/12/30 15:31:28;;;;;;;5.18;1.55;;;;;;;;;;5100889;28;20028;-60
2022/12/30 15:34:02;;;;;;;;;;;;;;;;;;5093352;28;20358;-61
2022/12/30 15:36:30;;;;;;;3.58;1.25;;;;;;;;;;5085344;28;19918;-61
2022/12/30 15:38:59;;;;;;;2.92;1.40;;;;;;;;;;5112317;28;20073;-61
2022/12/30 15:41:31;;;;;;;7.10;1.73;;;;;;;;;;5074166;28;20119;-60
2022/12/30 15:44:00;;;;;;;2.67;1.20;;;;;;;;;;5078414;28;20036;-60
2022/12/30 15:46:30;;;;;;;3.05;1.50;;;;;;;;;;5112212;28;20475;-60
2022/12/30 15:49:13;;;;;;;3.55;1.35;;;;;;;;;;5111879;28;20380;-60
2022/12/30 15:51:42;;;;;;;2.83;1.40;;;;;;;;;;5093354;28;20115;-61
2022/12/30 15:54:25;;;;;;;2.20;1.23;;;;;;;;;;5096964;28;20089;-60
2022/12/30 15:56:53;;;;;;;2.80;1.20;;;;;;;;;;5106992;28;20028;-60
2022/12/30 15:59:26;;;;;;;2.30;1.45;;;;;;;;;;5109855;28;20120;-61